createdAt,value
2022-10-09T00:02:08.128Z,26.2
2022-10-09T00:07:45.051Z,26.2
2022-10-09T00:13:22.792Z,26.2
2022-10-09T00:19:00.745Z,26.2
2022-10-09T00:24:36.908Z,26.2
2022-10-09T00:30:17.989Z,26.2
2022-10-09T00:35:40.450Z,26.2
2022-10-09T00:41:01.660Z,26.1
2022-10-09T00:46:39.135Z,26.2
2022-10-09T00:52:17.039Z,26.2
2022-10-09T00:57:55.088Z,26.2
2022-10-09T01:03:32.853Z,26.2
2022-10-09T01:09:10.018Z,26.2
2022-10-09T01:14:47.156Z,26.2
2022-10-09T01:20:24.984Z,26.2
2022-10-09T01:26:01.903Z,26.1
2022-10-09T01:31:23.503Z,26.2
2022-10-09T01:36:45.523Z,26.1
2022-10-09T01:42:22.698Z,26.1
2022-10-09T01:47:44.851Z,26.1
2022-10-09T01:53:22.665Z,26.1
2022-10-09T01:58:44.687Z,26.1
2022-10-09T02:04:21.581Z,26.1
2022-10-09T02:09:42.671Z,26.1
2022-10-09T02:15:20.495Z,26.1
2022-10-09T02:20:43.141Z,26.1
2022-10-09T02:26:24.996Z,26.1
2022-10-09T02:32:08.585Z,26.1
2022-10-09T02:37:43.952Z,26.1
2022-10-09T02:43:20.758Z,26.1
2022-10-09T02:48:57.903Z,26.1
2022-10-09T02:54:18.654Z,26.1
2022-10-09T02:59:59.755Z,26.1
2022-10-09T03:05:38.417Z,26.1
2022-10-09T03:10:59.628Z,26.1
2022-10-09T03:16:21.152Z,26.1
2022-10-09T03:21:28.179Z,26.1
2022-10-09T03:26:48.545Z,26.1
2022-10-09T03:32:40.118Z,26.1
2022-10-09T03:37:47.366Z,26.1
2022-10-09T03:42:52.191Z,26.1
2022-10-09T03:47:43.860Z,26.1
2022-10-09T03:53:05.912Z,26.1
2022-10-09T03:58:26.858Z,26
2022-10-09T04:03:34.158Z,26
2022-10-09T04:08:56.231Z,26
2022-10-09T04:14:16.403Z,26
2022-10-09T04:19:38.397Z,26
2022-10-09T04:24:45.774Z,26
2022-10-09T04:30:07.280Z,26
2022-10-09T04:35:13.948Z,26
2022-10-09T04:40:35.620Z,26
2022-10-09T04:45:58.050Z,25.9
2022-10-09T04:51:22.022Z,25.9
2022-10-09T04:56:48.677Z,25.9
2022-10-09T05:02:11.855Z,25.9
2022-10-09T05:07:49.625Z,26
2022-10-09T05:13:26.886Z,25.8
2022-10-09T05:19:35.223Z,25.4
2022-10-09T05:25:16.241Z,25.3
2022-10-09T05:30:38.357Z,25.2
2022-10-09T05:36:20.022Z,25.1
2022-10-09T05:41:57.831Z,25.1
2022-10-09T05:47:36.216Z,25.1
2022-10-09T05:53:13.428Z,25
2022-10-09T05:58:54.563Z,25
2022-10-09T06:04:33.593Z,24.9
2022-10-09T06:10:10.625Z,24.8
2022-10-09T06:15:53.564Z,24.7
2022-10-09T06:21:35.599Z,24.5
2022-10-09T06:27:17.621Z,30.4
2022-10-09T06:32:56.472Z,30.4
2022-10-09T06:38:39.399Z,28.9
2022-10-09T06:44:16.907Z,28.2
2022-10-09T06:49:54.512Z,34.8
2022-10-09T06:55:32.685Z,35.4
2022-10-09T07:01:09.997Z,34.8
2022-10-09T07:06:48.763Z,32.7
2022-10-09T07:12:26.518Z,33.1
2022-10-09T07:18:04.374Z,33.9
2022-10-09T07:23:46.111Z,34.9
2022-10-09T07:29:24.456Z,35.9
2022-10-09T07:35:02.747Z,36.9
2022-10-09T07:40:39.728Z,37.9
2022-10-09T07:46:18.096Z,38.8
2022-10-09T07:51:55.466Z,39.6
2022-10-09T07:57:33.178Z,40.4
2022-10-09T08:02:59.828Z,41.9
2022-10-09T08:08:40.905Z,43.2
2022-10-09T08:14:19.533Z,44.4
2022-10-09T08:19:58.043Z,45.6
2022-10-09T08:25:34.545Z,46.9
2022-10-09T08:31:16.739Z,47.3
2022-10-09T08:36:57.245Z,47.5
2022-10-09T08:42:43.263Z,48.1
2022-10-09T08:48:05.416Z,48.9
2022-10-09T08:53:43.522Z,50.1
2022-10-09T08:59:04.995Z,51.2
2022-10-09T09:04:43.867Z,52.3
2022-10-09T09:10:22.069Z,53.1
2022-10-09T09:15:43.890Z,53.9
2022-10-09T09:21:21.485Z,54.5
2022-10-09T09:26:44.331Z,54.8
2022-10-09T09:32:09.736Z,55.3
2022-10-09T09:37:35.307Z,56.3
2022-10-09T09:44:16.684Z,57
2022-10-09T09:49:26.020Z,57.6
2022-10-09T09:55:41.235Z,58.3
2022-10-09T10:01:13.967Z,59
2022-10-09T10:06:22.320Z,59.6
2022-10-09T10:11:48.073Z,60.1
2022-10-09T10:17:12.549Z,60.8
2022-10-09T10:22:38.113Z,61.3
2022-10-09T10:27:48.015Z,61.8
2022-10-09T10:33:26.077Z,62.1
2022-10-09T10:38:48.538Z,62.5
2022-10-09T10:44:25.907Z,63.1
2022-10-09T10:49:50.507Z,63.6
2022-10-09T10:55:12.119Z,64.1
2022-10-09T11:00:52.259Z,64.6
2022-10-09T11:06:06.251Z,65
2022-10-09T11:11:43.482Z,65.4
2022-10-09T11:17:28.158Z,65.8
2022-10-09T11:22:53.242Z,66.1
2022-10-09T11:27:59.765Z,66.5
2022-10-09T11:33:22.929Z,66.8
2022-10-09T11:39:01.501Z,67.2
2022-10-09T11:44:14.686Z,67.4
2022-10-09T11:49:39.482Z,67.7
2022-10-09T11:55:02.040Z,67.9
2022-10-09T12:00:23.276Z,68.2
2022-10-09T12:06:01.487Z,68.4
2022-10-09T12:11:27.261Z,68.6
2022-10-09T12:16:49.770Z,68.7
2022-10-09T12:22:30.660Z,68.8
2022-10-09T12:28:17.430Z,68.9
2022-10-09T12:33:55.217Z,68.9
2022-10-09T12:39:32.236Z,69
2022-10-09T12:45:17.124Z,69
2022-10-09T12:50:54.396Z,68.9
2022-10-09T12:56:32.826Z,68.8
2022-10-09T13:02:13.507Z,68.8
2022-10-09T13:07:50.653Z,68.6
2022-10-09T13:13:28.323Z,68.4
2022-10-09T13:19:06.785Z,68.1
2022-10-09T13:24:47.716Z,67.9
2022-10-09T13:30:26.084Z,67.6
2022-10-09T13:36:04.097Z,67.2
2022-10-09T13:41:42.834Z,66.8
2022-10-09T13:47:24.372Z,66.3
2022-10-09T13:53:02.306Z,65.8
2022-10-09T13:58:40.843Z,65.3
2022-10-09T14:04:19.808Z,64.7
2022-10-09T14:09:58.078Z,64
2022-10-09T14:15:34.517Z,63.4
2022-10-09T14:21:15.170Z,62.6
2022-10-09T14:26:53.259Z,61.8
2022-10-09T14:32:30.849Z,61
2022-10-09T14:38:31.532Z,60.3
2022-10-09T14:44:09.862Z,59
2022-10-09T14:49:31.622Z,56.2
2022-10-09T14:55:08.736Z,53.3
2022-10-09T15:00:45.951Z,51.4
2022-10-09T15:06:24.292Z,50.1
2022-10-09T15:12:02.375Z,49.1
2022-10-09T15:17:44.957Z,48.3
2022-10-09T15:23:22.384Z,47.6
2022-10-09T15:29:01.495Z,46.9
2022-10-09T15:34:41.088Z,46.3
2022-10-09T15:40:21.971Z,45.8
2022-10-09T15:46:00.303Z,45.4
2022-10-09T15:51:50.601Z,44.9
2022-10-09T15:57:29.723Z,44.5
2022-10-09T16:03:08.612Z,44.2
2022-10-09T16:08:46.346Z,43.9
2022-10-09T16:14:32.801Z,43.5
2022-10-09T16:20:14.050Z,43.2
2022-10-09T16:25:38.309Z,43
2022-10-09T16:31:00.055Z,42.8
2022-10-09T16:36:22.019Z,42.6
2022-10-09T16:42:30.495Z,42.3
2022-10-09T16:47:52.699Z,42.1
2022-10-09T16:53:19.995Z,41.8
2022-10-09T16:58:58.457Z,41.6
2022-10-09T17:04:20.589Z,41.4
2022-10-09T17:10:03.188Z,41.2
2022-10-09T17:15:41.937Z,41
2022-10-09T17:21:05.102Z,40.9
2022-10-09T17:26:28.190Z,40.7
2022-10-09T17:32:06.863Z,40.5
2022-10-09T17:37:49.995Z,40.3
2022-10-09T17:43:17.204Z,40.2
2022-10-09T17:48:44.216Z,40
2022-10-09T17:53:50.732Z,39.9
2022-10-09T17:59:17.584Z,39.8
2022-10-09T18:04:56.173Z,39.6
2022-10-09T18:10:18.160Z,39.4
2022-10-09T18:15:39.831Z,39.4
2022-10-09T18:20:52.378Z,39.3
2022-10-09T18:26:30.134Z,39.1
2022-10-09T18:31:56.961Z,37.1
2022-10-09T18:37:37.644Z,36.5
2022-10-09T18:43:14.765Z,36.3
2022-10-09T18:48:52.631Z,36.1
2022-10-09T18:54:34.773Z,36
2022-10-09T19:00:11.768Z,35.9
2022-10-09T19:05:57.908Z,35.9
2022-10-09T19:11:36.634Z,35.9
2022-10-09T19:17:14.830Z,35.8
2022-10-09T19:22:56.920Z,35.8
2022-10-09T19:28:34.321Z,35.6
2022-10-09T19:34:15.191Z,35
2022-10-09T19:39:57.342Z,34.9
2022-10-09T19:45:34.997Z,34.8
2022-10-09T19:51:00.818Z,34.8
2022-10-09T19:56:38.042Z,34.7
2022-10-09T20:01:59.372Z,34.6
2022-10-09T20:07:25.551Z,34.6
2022-10-09T20:13:04.062Z,34.6
2022-10-09T20:18:43.601Z,34.6
2022-10-09T20:23:49.813Z,34.5
2022-10-09T20:29:33.323Z,34.5
2022-10-09T20:34:56.744Z,34.5
2022-10-09T20:40:38.169Z,34.4
2022-10-09T20:46:00.899Z,34.4
2022-10-09T20:51:38.369Z,34.4
2022-10-09T20:57:15.853Z,34.4
2022-10-09T21:02:11.631Z,34.3
2022-10-09T21:07:34.434Z,34.3
2022-10-09T21:13:13.563Z,34.3
2022-10-09T21:18:35.703Z,34.3
2022-10-09T21:24:19.615Z,34.3
2022-10-09T21:29:42.859Z,34.3
2022-10-09T21:35:23.148Z,34.2
2022-10-09T21:41:23.902Z,34.2
2022-10-09T21:47:00.934Z,34.1
2022-10-09T21:52:37.216Z,34.1
2022-10-09T21:58:01.756Z,34.1
2022-10-09T22:03:39.030Z,34.1
2022-10-09T22:09:16.423Z,34.1
2022-10-09T22:14:55.483Z,34
2022-10-09T22:20:21.054Z,34
2022-10-09T22:25:59.212Z,33.9
2022-10-09T22:31:37.568Z,33.9
2022-10-09T22:37:14.234Z,33.9
2022-10-09T22:42:51.307Z,33.9
2022-10-09T22:48:13.185Z,33.9
2022-10-09T22:53:49.313Z,33.9
2022-10-09T22:59:10.485Z,33.8
2022-10-09T23:04:48.296Z,33.8
2022-10-09T23:10:25.836Z,33.8
2022-10-09T23:15:32.509Z,33.8
2022-10-09T23:20:55.750Z,33.8
2022-10-09T23:26:32.534Z,33.7
2022-10-09T23:32:10.154Z,33.6
2022-10-09T23:37:47.629Z,33.6
2022-10-09T23:43:09.275Z,33.6
2022-10-09T23:48:51.018Z,33.6
2022-10-09T23:54:29.351Z,33.6
2022-10-09T23:59:50.525Z,33.5
